Time;durP1;ratioP1;P1;durP2;ratioP2;P2;SDS_P1;SDS_P2;PMS_P1;PMS_P2;Temp;Humidity;BMP_temperature;BMP_pressure;BME280_temperature;BME280_humidity;BME280_pressure;Samples;Min_cycle;Max_cycle;Signal;HPM_P1;HPM_P2
2024/03/17 00:00:39;;;;;;;18.30;12.00;;;;;;;5.44;90.79;101833.06;4860854;29;20148;-78
2024/03/17 00:03:08;;;;;;;22.73;12.68;;;;;;;5.38;91.70;101832.53;4856295;29;20070;-77
2024/03/17 00:05:35;;;;;;;21.58;13.10;;;;;;;5.34;91.74;101818.69;4858941;29;20546;-77
2024/03/17 00:08:04;;;;;;;20.48;12.35;;;;;;;5.32;91.81;101816.13;4858678;29;20061;-77
2024/03/17 00:10:30;;;;;;;21.58;13.05;;;;;;;5.29;91.21;101825.94;4864582;29;20053;-78
2024/03/17 00:12:57;;;;;;;20.80;12.60;;;;;;;5.25;91.84;101811.25;4864264;29;20053;-78
2024/03/17 00:15:22;;;;;;;19.65;12.52;;;;;;;5.29;91.70;101804.94;4862736;29;20057;-79
2024/03/17 00:17:49;;;;;;;18.88;12.20;;;;;;;5.28;91.80;101803.22;4863412;29;20121;-79
2024/03/17 00:20:19;;;;;;;19.33;12.73;;;;;;;5.20;92.22;101800.94;4859817;29;20054;-78
2024/03/17 00:22:51;;;;;;;24.05;13.05;;;;;;;5.15;92.21;101813.44;4865420;29;20431;-79
2024/03/17 00:25:17;;;;;;;19.00;12.88;;;;;;;5.13;91.99;101801.28;4863589;29;20058;-78
2024/03/17 00:27:49;;;;;;;21.35;12.63;;;;;;;5.10;92.34;101796.22;4861248;29;20535;-78
2024/03/17 00:30:15;;;;;;;20.98;13.00;;;;;;;5.09;92.67;101798.00;4860562;29;20133;-79
2024/03/17 00:32:43;;;;;;;18.95;12.95;;;;;;;5.06;93.30;101793.72;4860819;29;20049;-77
2024/03/17 00:35:13;;;;;;;21.15;13.50;;;;;;;5.04;93.26;101794.69;4860358;29;20081;-78
2024/03/17 00:37:40;;;;;;;23.33;13.88;;;;;;;5.04;93.28;101800.81;4857910;29;20050;-77
2024/03/17 00:40:09;;;;;;;20.10;12.77;;;;;;;4.99;93.87;101796.69;4865834;29;20136;-78
2024/03/17 00:42:35;;;;;;;21.38;13.52;;;;;;;4.98;93.58;101795.84;4858339;29;20428;-80
2024/03/17 00:45:02;;;;;;;18.30;13.13;;;;;;;5.06;93.61;101796.34;4850070;29;20153;-78
2024/03/17 00:47:29;;;;;;;22.17;14.25;;;;;;;5.12;93.30;101783.84;4861904;29;20109;-79
2024/03/17 00:49:54;;;;;;;30.05;14.38;;;;;;;5.08;93.53;101794.47;4861021;29;20144;-77
2024/03/17 00:52:21;;;;;;;19.08;12.75;;;;;;;5.03;94.38;101793.00;4863008;29;20057;-80
2024/03/17 00:54:47;;;;;;;24.15;14.32;;;;;;;5.07;94.61;101794.56;4865373;29;20148;-79
2024/03/17 00:57:15;;;;;;;20.80;14.52;;;;;;;5.10;94.21;101783.94;4865980;29;20085;-80
2024/03/17 00:59:42;;;;;;;20.92;14.48;;;;;;;5.13;93.57;101786.41;4866716;29;20045;-78
2024/03/17 01:02:09;;;;;;;23.15;14.02;;;;;;;5.12;93.92;101781.22;4869446;29;20060;-79
2024/03/17 01:04:35;;;;;;;20.55;13.85;;;;;;;5.10;94.01;101780.47;4866962;29;20170;-79
2024/03/17 01:07:02;;;;;;;24.27;13.98;;;;;;;5.14;93.82;101789.91;4872864;29;20077;-78
2024/03/17 01:09:27;;;;;;;19.30;13.43;;;;;;;5.08;94.37;101778.75;4865559;29;20446;-80
2024/03/17 01:11:54;;;;;;;20.42;13.40;;;;;;;5.06;94.15;101783.22;4865663;29;20049;-80
2024/03/17 01:14:21;;;;;;;19.63;13.82;;;;;;;5.05;94.88;101773.66;4864167;29;20149;-78
2024/03/17 01:16:48;;;;;;;20.45;14.48;;;;;;;5.12;94.52;101768.13;4862402;29;20061;-78
2024/03/17 01:19:13;;;;;;;24.88;14.23;;;;;;;5.08;94.45;101770.03;4862293;29;20053;-79
2024/03/17 01:21:40;;;;;;;23.52;14.77;;;;;;;5.05;95.23;101768.41;4862755;29;20433;-79
2024/03/17 01:24:09;;;;;;;18.85;14.02;;;;;;;5.07;95.32;101763.94;4866488;29;20166;-78
2024/03/17 01:26:35;;;;;;;25.88;15.52;;;;;;;5.07;94.37;101766.56;4861274;29;20057;-79
2024/03/17 01:29:01;;;;;;;23.15;15.23;;;;;;;5.03;94.54;101761.53;4856292;29;20445;-78
2024/03/17 01:31:29;;;;;;;25.92;14.73;;;;;;;5.02;93.95;101758.06;4860621;29;20057;-79
2024/03/17 01:33:55;;;;;;;25.48;14.43;;;;;;;5.04;94.42;101757.97;4860203;29;20117;-78
2024/03/17 01:36:23;;;;;;;24.00;13.70;;;;;;;4.93;95.19;101757.63;4860642;29;20057;-78
2024/03/17 01:38:49;;;;;;;25.52;14.43;;;;;;;4.89;95.05;101764.78;4860707;29;20409;-78
2024/03/17 01:41:16;;;;;;;22.67;13.98;;;;;;;4.86;95.14;101750.94;4860606;29;20057;-79
2024/03/17 01:43:42;;;;;;;23.38;14.45;;;;;;;4.84;95.48;101753.66;4861301;29;20132;-79
2024/03/17 01:46:13;;;;;;;22.00;14.52;;;;;;;4.78;94.86;101751.31;4861925;29;20096;-78
2024/03/17 01:48:42;;;;;;;22.27;14.75;;;;;;;4.70;95.96;101748.19;4862759;29;20472;-79
2024/03/17 01:51:11;;;;;;;23.73;16.00;;;;;;;4.71;96.02;101749.88;4862288;29;20057;-78
2024/03/17 01:53:39;;;;;;;24.25;15.98;;;;;;;4.63;96.49;101742.34;4862036;29;20088;-78
2024/03/17 01:56:08;;;;;;;23.85;15.43;;;;;;;4.69;95.76;101743.88;4861714;29;20060;-79
2024/03/17 01:58:34;;;;;;;25.58;14.15;;;;;;;4.67;95.56;101737.81;4860746;29;20049;-79
2024/03/17 02:01:04;;;;;;;22.52;14.68;;;;;;;4.57;96.30;101734.75;4853740;29;20077;-79
2024/03/17 02:03:29;;;;;;;24.13;15.68;;;;;;;4.58;96.41;101736.47;4862502;29;20132;-78
2024/03/17 02:05:57;;;;;;;26.92;18.67;;;;;;;4.66;97.13;101738.75;4860941;29;20137;-78
2024/03/17 02:08:24;;;;;;;30.95;19.38;;;;;;;4.65;96.92;101732.66;4862278;29;20489;-78
2024/03/17 02:10:54;;;;;;;31.67;20.42;;;;;;;4.63;97.00;101741.50;4861901;29;20461;-78
2024/03/17 02:13:21;;;;;;;31.88;18.80;;;;;;;4.65;96.94;101740.53;4860647;29;20062;-79
2024/03/17 02:15:47;;;;;;;28.80;18.98;;;;;;;4.65;96.60;101737.06;4861239;29;20057;-78
2024/03/17 02:18:13;;;;;;;25.60;17.17;;;;;;;4.63;97.02;101736.25;4861441;29;20473;-78
2024/03/17 02:20:59;;;;;;;26.80;17.08;;;;;;;4.60;97.31;101739.00;4862013;29;20042;-77
2024/03/17 02:23:27;;;;;;;29.75;17.27;;;;;;;4.42;97.42;101736.31;4865005;29;20061;-78
2024/03/17 02:25:54;;;;;;;25.73;16.15;;;;;;;4.37;97.54;101735.63;4861301;29;20064;-79
2024/03/17 02:28:20;;;;;;;23.60;15.65;;;;;;;4.34;97.16;101737.56;4861234;29;20092;-79
2024/03/17 02:30:47;;;;;;;26.45;15.60;;;;;;;4.33;97.85;101736.72;4868195;29;20088;-78
2024/03/17 02:33:13;;;;;;;25.40;15.82;;;;;;;4.31;97.80;101733.28;4860584;29;20080;-77
2024/03/17 02:35:39;;;;;;;29.70;15.68;;;;;;;4.25;98.03;101731.78;4860791;29;20053;-78
2024/03/17 02:38:05;;;;;;;23.73;15.43;;;;;;;4.25;98.29;101731.78;4861066;29;20144;-78
2024/03/17 02:40:33;;;;;;;24.15;15.93;;;;;;;4.29;97.48;101732.53;4860754;29;20144;-78
2024/03/17 02:43:00;;;;;;;25.58;15.90;;;;;;;4.28;96.80;101733.41;4862676;29;20211;-79
2024/03/17 02:45:26;;;;;;;22.33;15.57;;;;;;;4.25;96.76;101730.94;4861277;29;20088;-77
2024/03/17 02:47:53;;;;;;;25.02;15.20;;;;;;;4.18;98.23;101729.50;4858833;29;20136;-79
2024/03/17 02:50:20;;;;;;;23.20;16.42;;;;;;;4.14;98.12;101738.41;4858469;29;20136;-77
2024/03/17 02:52:46;;;;;;;24.45;16.00;;;;;;;4.13;98.02;101739.31;4860325;29;20156;-78
2024/03/17 02:55:13;;;;;;;26.58;16.42;;;;;;;4.18;97.30;101737.34;4861354;29;20129;-77
2024/03/17 02:57:41;;;;;;;27.40;17.05;;;;;;;4.22;96.49;101726.69;4861051;29;20080;-78
2024/03/17 03:00:12;;;;;;;30.00;16.05;;;;;;;4.22;96.23;101720.59;4862188;29;20064;-78
2024/03/17 03:02:40;;;;;;;23.95;16.35;;;;;;;4.16;96.00;101720.88;4862067;29;20101;-79
2024/03/17 03:05:07;;;;;;;25.27;16.45;;;;;;;4.12;96.46;101708.81;4862010;29;20057;-77
2024/03/17 03:07:34;;;;;;;23.23;15.82;;;;;;;4.13;95.90;101715.75;4862251;29;20057;-79
2024/03/17 03:10:00;;;;;;;24.13;15.70;;;;;;;4.13;95.80;101720.97;4864513;29;20512;-77
2024/03/17 03:12:27;;;;;;;23.70;16.42;;;;;;;4.03;96.37;101729.25;4867021;29;20080;-79
2024/03/17 03:14:55;;;;;;;24.02;16.45;;;;;;;3.98;96.36;101715.50;4864680;29;20053;-78
2024/03/17 03:17:21;;;;;;;26.20;16.05;;;;;;;3.99;96.70;101721.56;4867882;29;20116;-79
2024/03/17 03:19:48;;;;;;;25.95;16.38;;;;;;;4.01;96.87;101719.72;4864915;29;20818;-78
2024/03/17 03:22:15;;;;;;;26.60;16.80;;;;;;;4.00;97.15;101721.50;4864592;29;20077;-78
2024/03/17 03:24:42;;;;;;;25.52;16.52;;;;;;;4.04;96.47;101722.22;4864001;29;20113;-78
2024/03/17 03:27:08;;;;;;;28.50;16.65;;;;;;;3.97;96.88;101720.78;4863299;29;20053;-79
2024/03/17 03:29:35;;;;;;;28.90;17.80;;;;;;;4.01;96.77;101723.19;4869172;29;20110;-79
2024/03/17 03:32:03;;;;;;;29.50;16.55;;;;;;;3.98;96.68;101722.50;4866581;29;20095;-78
2024/03/17 03:34:29;;;;;;;26.13;17.80;;;;;;;3.93;96.58;101713.97;4866246;29;20053;-79
2024/03/17 03:36:57;;;;;;;27.75;17.75;;;;;;;3.91;96.55;101716.66;4863663;29;20172;-78
2024/03/17 03:39:25;;;;;;;31.63;16.50;;;;;;;3.89;96.10;101717.66;4864346;29;20084;-78
2024/03/17 03:41:52;;;;;;;22.48;16.05;;;;;;;3.85;96.25;101719.53;4864971;29;20061;-79
2024/03/17 03:44:18;;;;;;;24.17;15.90;;;;;;;3.84;96.42;101720.47;4864253;29;20498;-79
2024/03/17 03:46:46;;;;;;;21.83;15.48;;;;;;;3.82;96.33;101721.44;4865054;29;20053;-79
2024/03/17 03:49:14;;;;;;;23.92;15.32;;;;;;;3.77;96.50;101729.47;4864155;29;20390;-78
2024/03/17 03:51:41;;;;;;;28.90;15.27;;;;;;;3.84;96.38;101725.69;4862619;29;20081;-78
2024/03/17 03:54:08;;;;;;;27.10;16.27;;;;;;;3.86;96.01;101718.63;4863094;29;20101;-77
2024/03/17 03:56:34;;;;;;;22.30;15.20;;;;;;;3.83;96.12;101710.88;4864591;29;20084;-77
2024/03/17 03:59:01;;;;;;;23.27;15.48;;;;;;;3.81;95.75;101715.34;4863577;29;20081;-78
2024/03/17 04:01:28;;;;;;;22.65;14.82;;;;;;;3.77;96.29;101719.00;4863110;29;20114;-78
2024/03/17 04:03:54;;;;;;;27.15;15.75;;;;;;;3.76;96.70;101717.31;4860770;29;20118;-78
2024/03/17 04:06:23;;;;;;;21.23;14.88;;;;;;;3.78;96.54;101715.47;4864694;29;20118;-80
2024/03/17 04:08:50;;;;;;;20.58;14.68;;;;;;;3.77;95.93;101717.22;4861671;29;20096;-77
2024/03/17 04:11:16;;;;;;;21.70;14.85;;;;;;;3.78;96.13;101707.63;4861590;29;20477;-79
2024/03/17 04:13:43;;;;;;;22.65;14.88;;;;;;;3.75;95.32;101711.22;4865305;29;20420;-78
2024/03/17 04:16:10;;;;;;;23.73;14.93;;;;;;;3.81;95.57;101710.13;4861250;29;20374;-78
2024/03/17 04:18:37;;;;;;;25.98;14.50;;;;;;;3.81;95.15;101702.25;4860949;29;20056;-78
2024/03/17 04:21:06;;;;;;;21.73;15.48;;;;;;;3.78;95.69;101695.38;4860882;29;20077;-78
2024/03/17 04:23:34;;;;;;;25.50;15.40;;;;;;;3.83;96.49;101696.94;4864914;29;20053;-78
2024/03/17 04:26:03;;;;;;;22.00;15.27;;;;;;;3.89;96.03;101692.31;4861469;29;20140;-77
2024/03/17 04:28:30;;;;;;;20.83;14.25;;;;;;;3.95;96.67;101686.81;4861878;29;20060;-78
2024/03/17 04:31:05;;;;;;;24.38;15.88;;;;;;;4.02;96.54;101688.25;4861847;29;20080;-76
2024/03/17 04:33:32;;;;;;;23.35;15.55;;;;;;;4.07;96.66;101689.81;4859295;29;20531;-79
2024/03/17 04:35:58;;;;;;;24.65;16.45;;;;;;;4.07;96.81;101677.59;4862318;29;20144;-79
2024/03/17 04:38:25;;;;;;;29.90;16.23;;;;;;;4.12;96.43;101685.25;4853960;29;20132;-76
2024/03/17 04:40:59;;;;;;;22.70;15.43;;;;;;;4.13;96.73;101687.78;4858591;29;20046;-78
2024/03/17 04:43:25;;;;;;;25.10;16.10;;;;;;;4.15;96.77;101679.84;4856652;29;20136;-77
2024/03/17 04:46:00;;;;;;;22.45;16.00;;;;;;;4.13;96.67;101685.16;4862334;29;20128;-78
2024/03/17 04:48:27;;;;;;;26.75;16.48;;;;;;;4.12;97.11;101675.59;4861124;29;20512;-76
2024/03/17 04:51:45;;;;;;;30.85;16.42;;;;;;;4.18;97.03;101677.94;4886979;24;20133;-83
2024/03/17 05:15:31;;;;;;;21.38;14.77;;;;;;;4.01;97.32;101660.34;4698830;30;20161;-84
2024/03/17 05:18:01;;;;;;;25.77;15.93;;;;;;;4.02;97.42;101663.84;4737005;30;20064;-80
2024/03/17 05:20:27;;;;;;;23.10;14.98;;;;;;;3.95;97.35;101658.00;4799064;29;20081;-82
2024/03/17 05:22:54;;;;;;;27.65;15.60;;;;;;;3.92;98.21;101665.97;4840764;29;20054;-83
2024/03/17 05:25:21;;;;;;;24.33;15.60;;;;;;;3.92;98.17;101665.97;4852050;29;20077;-83
2024/03/17 05:27:47;;;;;;;26.60;14.98;;;;;;;3.91;98.52;101668.66;4872950;29;20558;-83
2024/03/17 05:30:17;;;;;;;23.98;15.20;;;;;;;3.90;98.50;101666.97;4869961;29;20094;-83
2024/03/17 05:32:45;;;;;;;22.92;15.80;;;;;;;3.89;98.44;101666.13;4884293;29;20120;-80
2024/03/17 05:35:12;;;;;;;23.85;14.98;;;;;;;3.87;98.49;101673.19;4883814;29;20426;-82
2024/03/17 05:37:40;;;;;;;24.63;16.50;;;;;;;3.84;97.97;101667.22;4877336;29;20114;-80
2024/03/17 05:40:12;;;;;;;22.17;15.65;;;;;;;3.79;98.16;101659.56;4883380;29;20045;-80
2024/03/17 05:42:38;;;;;;;26.67;16.33;;;;;;;3.77;97.77;101666.66;4876280;29;20049;-79
2024/03/17 05:45:10;;;;;;;24.33;15.65;;;;;;;3.75;97.94;101671.97;4875135;29;20049;-80
2024/03/17 05:47:37;;;;;;;26.08;16.10;;;;;;;3.75;98.11;101681.56;4888326;29;20053;-80
2024/03/17 05:50:06;;;;;;;25.23;15.88;;;;;;;3.69;98.20;101681.81;4886954;29;20049;-80
2024/03/17 05:52:33;;;;;;;32.15;16.70;;;;;;;3.70;98.35;101680.91;4876124;29;20124;-79
2024/03/17 05:55:06;;;;;;;24.27;15.65;;;;;;;3.73;99.12;101680.78;4879328;29;20057;-81
2024/03/17 05:57:32;;;;;;;24.58;16.17;;;;;;;3.76;98.34;101680.66;4890016;29;20089;-81
2024/03/17 05:59:59;;;;;;;32.53;20.73;;;;;;;3.81;98.08;101683.94;4878188;29;20052;-80
2024/03/17 06:02:26;;;;;;;27.13;16.38;;;;;;;3.83;97.93;101676.00;4875916;29;20049;-81
2024/03/17 06:04:53;;;;;;;24.17;16.10;;;;;;;3.85;97.05;101680.25;4880698;29;20057;-81
2024/03/17 06:07:21;;;;;;;28.92;17.23;;;;;;;3.82;97.15;101679.53;4880449;29;20061;-81
2024/03/17 06:09:49;;;;;;;27.42;16.63;;;;;;;3.81;96.82;101686.53;4877518;29;20113;-83
2024/03/17 06:12:16;;;;;;;23.08;16.48;;;;;;;3.85;96.63;101682.03;4885060;29;20226;-82
2024/03/17 06:14:42;;;;;;;25.35;16.88;;;;;;;3.86;96.50;101671.50;4875040;29;20099;-83
2024/03/17 06:17:09;;;;;;;25.77;16.40;;;;;;;3.89;96.09;101671.38;4878317;29;20092;-80
2024/03/17 06:19:36;;;;;;;26.25;16.35;;;;;;;3.92;95.90;101665.97;4869237;29;20049;-80
2024/03/17 06:22:03;;;;;;;24.33;16.45;;;;;;;3.92;95.48;101655.50;4873635;29;20061;-81
2024/03/17 06:24:33;;;;;;;27.58;16.75;;;;;;;3.96;95.65;101659.69;4874563;29;20073;-81
2024/03/17 06:27:00;;;;;;;25.50;15.98;;;;;;;4.06;95.73;101660.13;4881679;29;20058;-80
2024/03/17 06:30:19;;;;;;;22.50;16.00;;;;;;;4.16;95.26;101653.59;4872894;29;20405;-81
2024/03/17 09:04:04;;;;;;;10.40;7.10;;;;;;;10.03;65.54;101593.00;4728784;30;20084;-83
2024/03/17 09:27:08;;;;;;;;;;;;;;;;;;;;;
2024/03/17 11:51:43;;;;;;;9.02;6.50;;;;;;;13.08;57.51;101546.72;5122479;27;20877;-78
2024/03/17 11:54:16;;;;;;;8.32;6.35;;;;;;;13.22;57.17;101534.97;5111954;28;20051;-78
2024/03/17 11:56:42;;;;;;;;;;;;;;;13.14;56.67;101540.03;5108080;28;20044;-78
2024/03/17 11:59:09;;;;;;;8.95;6.63;;;;;;;13.09;57.52;101528.97;5102865;28;19928;-80
2024/03/17 12:01:36;;;;;;;8.57;6.32;;;;;;;13.34;57.09;101530.41;5103660;28;20106;-77
2024/03/17 12:04:05;;;;;;;10.25;6.68;;;;;;;13.57;56.48;101520.47;5092858;28;20075;-77
2024/03/17 12:06:32;;;;;;;10.27;6.80;;;;;;;13.77;56.43;101522.25;5101443;28;20052;-78
2024/03/17 12:09:11;;;;;;;8.27;6.70;;;;;;;13.53;56.59;101522.56;5102613;28;20052;-78
2024/03/17 12:11:38;;;;;;;9.43;6.53;;;;;;;13.57;55.74;101521.34;5101541;28;20150;-77
2024/03/17 12:14:16;;;;;;;8.75;6.65;;;;;;;13.31;56.31;101514.72;5102262;28;20522;-78
2024/03/17 12:16:49;;;;;;;10.45;6.47;;;;;;;13.49;55.82;101513.16;5103868;28;20101;-80
2024/03/17 12:19:16;;;;;;;11.88;6.97;;;;;;;13.87;55.89;101507.16;5007167;27;1649837;-79
2024/03/17 12:21:45;;;;;;;11.07;6.78;;;;;;;13.79;56.31;101500.81;5066350;28;20914;-79
2024/03/17 12:24:15;;;;;;;12.75;7.07;;;;;;;13.59;55.34;101502.56;5071175;28;20428;-78
2024/03/17 12:26:43;;;;;;;9.82;7.07;;;;;;;13.54;55.76;101495.00;5073817;28;20068;-78
2024/03/17 12:29:27;;;;;;;8.88;6.78;;;;;;;13.80;55.34;101491.91;5073891;28;20195;-79
2024/03/17 12:31:55;;;;;;;11.68;6.68;;;;;;;13.67;55.48;101483.31;5073298;28;20101;-79
2024/03/17 12:34:21;;;;;;;10.15;7.18;;;;;;;13.71;55.73;101482.06;5074353;28;20075;-78
2024/03/17 12:36:50;;;;;;;8.20;6.50;;;;;;;13.78;55.43;101478.72;5077916;28;20051;-78
2024/03/17 12:39:22;;;;;;;10.25;6.95;;;;;;;14.06;54.35;101474.47;5078771;28;20075;-78
2024/03/17 12:42:05;;;;;;;10.35;6.60;;;;;;;13.80;55.25;101475.94;5078956;28;20066;-78
2024/03/17 12:44:32;;;;;;;10.75;6.80;;;;;;;13.69;55.53;101479.50;5080471;28;20164;-79
2024/03/17 12:47:01;;;;;;;11.07;6.80;;;;;;;13.61;55.48;101474.84;5077401;28;20139;-79
2024/03/17 12:49:28;;;;;;;12.05;7.03;;;;;;;13.64;55.50;101460.44;5082904;28;20096;-78
2024/03/17 12:51:54;;;;;;;13.20;7.25;;;;;;;13.78;55.63;101460.09;5069044;28;20037;-78
2024/03/17 12:54:24;;;;;;;10.70;6.60;;;;;;;13.86;55.93;101459.41;5060043;28;20102;-77
2024/03/17 13:02:28;;;;;;;7.95;6.68;;;;;;;13.55;56.12;101448.78;5059832;28;20060;-77
2024/03/17 13:05:23;;;;;;;8.88;6.53;;;;;;;13.70;56.29;101437.78;5057196;28;20046;-77
2024/03/17 13:07:50;;;;;;;8.05;6.18;;;;;;;13.65;56.87;101427.56;5004956;28;20048;-77
2024/03/17 13:10:20;;;;;;;8.95;6.70;;;;;;;13.71;56.28;101420.88;5056028;28;20132;-77
2024/03/17 13:12:46;;;;;;;11.32;8.05;;;;;;;13.74;55.88;101426.75;5055491;28;20112;-78
2024/03/17 13:15:15;;;;;;;11.88;6.88;;;;;;;13.96;55.70;101424.84;5054968;28;20114;-77
2024/03/17 13:17:42;;;;;;;8.35;6.32;;;;;;;13.82;55.60;101416.28;5055546;28;20662;-78
2024/03/17 13:20:14;;;;;;;9.75;6.82;;;;;;;13.69;56.00;101406.84;5060068;28;20068;-78
2024/03/17 13:22:42;;;;;;;8.38;6.63;;;;;;;13.71;55.77;101412.91;5060133;28;20049;-77
2024/03/17 13:25:15;;;;;;;9.07;6.45;;;;;;;13.75;55.78;101407.16;5057603;28;20045;-78
2024/03/17 13:27:45;;;;;;;8.75;6.25;;;;;;;13.73;57.40;101413.59;5060181;28;20053;-78
2024/03/17 13:30:12;;;;;;;8.68;6.55;;;;;;;13.71;56.32;101404.91;5061183;28;20052;-79
2024/03/17 13:32:39;;;;;;;9.25;6.50;;;;;;;13.76;56.94;101402.69;5060632;28;20053;-78
2024/03/17 13:35:09;;;;;;;9.48;6.80;;;;;;;13.77;56.59;101399.03;5059123;28;20057;-78
2024/03/17 13:37:38;;;;;;;10.20;6.32;;;;;;;13.87;56.76;101390.09;5050151;28;20056;-78
2024/03/17 13:40:12;;;;;;;10.15;6.68;;;;;;;13.63;57.15;101397.59;5048903;28;20053;-79
2024/03/17 13:42:39;;;;;;;7.95;6.30;;;;;;;13.53;57.83;101396.72;5057584;28;20049;-79
2024/03/17 13:45:14;;;;;;;7.88;6.25;;;;;;;13.75;57.52;101393.00;5057734;28;20048;-78
2024/03/17 13:47:42;;;;;;;10.23;6.45;;;;;;;13.78;57.33;101387.41;5054584;28;20049;-77
2024/03/17 13:50:12;;;;;;;8.85;6.07;;;;;;;13.57;57.37;101391.00;5054692;28;20084;-77
2024/03/17 13:52:40;;;;;;;7.72;6.25;;;;;;;13.57;57.78;101388.34;5056704;28;20431;-78
2024/03/17 13:55:07;;;;;;;8.48;6.13;;;;;;;13.55;57.44;101384.97;5049192;28;20052;-78
2024/03/17 13:57:35;;;;;;;8.98;5.93;;;;;;;13.51;57.28;101380.88;5054212;28;20061;-79
2024/03/17 14:00:02;;;;;;;9.82;6.15;;;;;;;13.55;56.70;101377.00;5054106;28;20045;-78
2024/03/17 14:02:30;;;;;;;9.65;6.47;;;;;;;13.63;56.74;101381.63;5054192;28;20083;-79
2024/03/17 14:04:58;;;;;;;8.80;5.93;;;;;;;13.87;57.30;101378.59;5054231;28;20053;-77
2024/03/17 14:07:25;;;;;;;7.85;6.10;;;;;;;13.85;56.89;101376.09;5054530;28;20072;-79
2024/03/17 14:09:51;;;;;;;8.60;6.43;;;;;;;13.80;56.47;101372.16;5053436;28;20100;-78
2024/03/17 14:12:18;;;;;;;7.47;5.60;;;;;;;13.88;57.10;101374.97;5053949;28;20076;-78
2024/03/17 14:14:44;;;;;;;10.07;6.18;;;;;;;13.82;56.38;101367.53;5053436;28;20103;-77
2024/03/17 14:17:11;;;;;;;10.73;6.03;;;;;;;13.96;57.02;101363.63;5054012;28;20091;-78
2024/03/17 14:19:39;;;;;;;9.35;6.00;;;;;;;13.91;56.16;101359.56;5054928;28;20533;-78
2024/03/17 14:22:06;;;;;;;8.68;6.35;;;;;;;13.93;55.53;101362.13;5046740;28;20087;-78
2024/03/17 14:24:34;;;;;;;9.55;6.72;;;;;;;14.03;55.72;101364.78;5058247;28;20057;-77
2024/03/17 14:27:01;;;;;;;8.77;6.45;;;;;;;14.00;55.24;101362.38;5053025;28;20060;-78
2024/03/17 14:29:28;;;;;;;9.10;6.18;;;;;;;14.07;55.60;101348.41;5053871;28;20041;-78
2024/03/17 14:31:54;;;;;;;12.15;5.90;;;;;;;14.12;54.46;101332.00;5048776;28;20032;-77
2024/03/17 14:34:21;;;;;;;9.75;5.95;;;;;;;14.10;55.54;101329.47;5052623;28;20174;-77
2024/03/17 14:36:49;;;;;;;6.80;5.43;;;;;;;14.20;55.57;101331.28;5050931;28;20049;-78
2024/03/17 14:39:16;;;;;;;8.60;5.75;;;;;;;14.25;55.52;101327.25;5051126;28;20045;-77
2024/03/17 14:41:42;;;;;;;7.05;5.25;;;;;;;14.35;55.03;101319.25;5052798;28;20084;-78
2024/03/17 14:44:13;;;;;;;8.80;6.00;;;;;;;14.40;54.92;101324.97;5052738;28;20129;-77
2024/03/17 14:46:39;;;;;;;10.27;6.38;;;;;;;14.16;53.90;101326.25;5054955;28;20055;-77
2024/03/17 14:49:06;;;;;;;11.77;5.80;;;;;;;14.27;55.31;101321.75;5046003;28;20143;-77
2024/03/17 14:51:32;;;;;;;7.30;6.10;;;;;;;14.17;54.42;101305.81;5049240;28;20486;-76
2024/03/17 14:54:01;;;;;;;11.18;5.85;;;;;;;14.30;54.82;101311.69;5051604;28;20124;-77
2024/03/17 14:56:27;;;;;;;7.75;5.93;;;;;;;14.42;54.52;101315.03;5051881;28;20068;-77
2024/03/17 14:58:54;;;;;;;8.40;5.68;;;;;;;14.33;54.10;101307.88;5051082;28;20478;-77
2024/03/17 15:01:21;;;;;;;8.25;5.45;;;;;;;14.47;54.92;101307.47;5051374;28;20135;-77
2024/03/17 15:03:47;;;;;;;8.88;5.70;;;;;;;14.54;54.43;101297.94;5050724;28;20053;-77
2024/03/17 15:06:18;;;;;;;7.78;5.85;;;;;;;14.41;54.30;101303.53;5051094;28;20499;-77
2024/03/17 15:08:44;;;;;;;7.05;5.90;;;;;;;14.50;54.20;101298.34;5051170;28;20052;-77
2024/03/17 15:11:12;;;;;;;8.48;5.97;;;;;;;14.55;54.33;101288.09;5050985;28;20131;-77
2024/03/17 15:13:42;;;;;;;9.50;6.30;;;;;;;14.47;54.32;101283.50;5050564;28;20136;-77
2024/03/17 15:16:09;;;;;;;9.48;5.53;;;;;;;14.61;54.10;101287.56;5044532;28;20607;-77
2024/03/17 15:18:36;;;;;;;9.45;6.60;;;;;;;14.49;53.89;101278.88;5053999;28;20053;-78
2024/03/17 15:21:05;;;;;;;8.45;5.70;;;;;;;14.44;54.38;101269.63;5057108;28;20183;-77
2024/03/17 15:23:34;;;;;;;7.90;5.85;;;;;;;14.39;54.71;101267.38;5053352;28;20104;-77
2024/03/17 15:26:06;;;;;;;9.73;5.38;;;;;;;14.38;55.16;101266.53;5055341;28;20076;-78
2024/03/17 15:28:34;;;;;;;7.57;5.72;;;;;;;14.28;55.00;101275.50;5053049;28;20473;-76
2024/03/17 15:31:03;;;;;;;8.95;5.78;;;;;;;14.28;54.91;101271.03;5052042;28;20056;-77
2024/03/17 15:33:30;;;;;;;9.32;5.50;;;;;;;14.22;55.67;101263.63;5052872;28;20508;-77
2024/03/17 15:35:56;;;;;;;8.43;5.82;;;;;;;14.19;55.85;101268.38;5049413;28;20080;-77
2024/03/17 15:38:23;;;;;;;9.55;5.55;;;;;;;14.27;55.71;101257.88;5049519;28;20055;-77
2024/03/17 15:40:49;;;;;;;8.52;5.25;;;;;;;14.28;55.92;101265.69;5050292;28;20040;-76
2024/03/17 15:43:18;;;;;;;8.23;5.45;;;;;;;14.33;56.25;101262.59;5053535;28;20054;-76
2024/03/17 15:45:45;;;;;;;9.15;5.45;;;;;;;14.35;56.18;101260.66;5049465;28;20049;-77
2024/03/17 15:48:12;;;;;;;8.75;5.75;;;;;;;14.23;56.42;101259.97;5051196;28;20076;-77
2024/03/17 15:50:39;;;;;;;9.77;6.05;;;;;;;14.35;55.93;101255.34;5051240;28;20041;-77
2024/03/17 15:53:06;;;;;;;8.93;5.57;;;;;;;14.49;55.35;101248.75;5048689;28;20055;-77
2024/03/17 15:55:33;;;;;;;8.10;6.35;;;;;;;14.61;55.22;101247.59;5049913;28;20061;-77
2024/03/17 15:58:00;;;;;;;8.52;5.90;;;;;;;14.62;54.35;101249.25;5049254;28;20241;-78
2024/03/17 16:00:29;;;;;;;6.88;5.70;;;;;;;14.81;54.61;101251.00;5053430;28;20041;-78
2024/03/17 16:02:57;;;;;;;7.82;5.50;;;;;;;14.85;54.49;101247.06;5053557;28;20135;-77
2024/03/17 16:05:24;;;;;;;8.10;5.45;;;;;;;14.77;54.86;101246.97;5054363;28;20687;-79
2024/03/17 16:07:50;;;;;;;8.40;5.63;;;;;;;14.75;55.49;101251.59;5053293;28;20487;-80
2024/03/17 16:10:37;;;;;;;7.38;5.30;;;;;;;14.52;55.68;101245.81;5054711;28;20087;-79
2024/03/17 16:13:04;;;;;;;10.13;5.82;;;;;;;14.45;56.86;101245.50;5051846;28;20107;-77
2024/03/17 16:15:31;;;;;;;8.65;5.90;;;;;;;14.23;55.83;101243.16;5053237;28;20128;-78
2024/03/17 16:17:59;;;;;;;8.55;5.90;;;;;;;14.14;56.99;101243.03;5049243;28;20126;-78
2024/03/17 16:21:04;;;;;;;7.38;5.55;;;;;;;14.09;57.88;101231.97;5051067;28;20145;-77
2024/03/17 16:27:00;;;;;;;10.15;5.85;;;;;;;13.89;58.31;101238.31;5036074;28;20669;-78
2024/03/17 16:29:27;;;;;;;7.10;5.60;;;;;;;13.79;58.61;101235.63;5053837;28;20501;-78
2024/03/17 16:31:54;;;;;;;8.45;5.75;;;;;;;13.72;59.30;101242.50;5053257;28;20049;-78
2024/03/17 16:34:25;;;;;;;8.65;6.15;;;;;;;13.71;59.19;101235.50;5053788;28;20172;-77
2024/03/17 16:36:52;;;;;;;9.30;5.90;;;;;;;13.64;59.63;101239.69;5054244;28;20425;-77
2024/03/17 16:39:40;;;;;;;8.75;6.05;;;;;;;13.58;60.61;101246.41;5044572;28;20057;-78
2024/03/17 16:42:07;;;;;;;9.27;5.97;;;;;;;13.52;61.01;101236.31;5054671;28;20048;-78
2024/03/17 16:44:44;;;;;;;8.93;5.93;;;;;;;13.52;60.93;101235.47;5057269;28;20044;-78
2024/03/17 16:47:29;;;;;;;8.95;5.93;;;;;;;13.43;60.74;101237.13;5057092;28;20369;-76
2024/03/17 16:49:59;;;;;;;10.80;6.25;;;;;;;13.44;60.28;101238.84;5054602;28;20057;-77
2024/03/17 16:52:26;;;;;;;9.52;6.28;;;;;;;13.42;60.41;101224.81;5054406;28;20049;-76
2024/03/17 16:54:54;;;;;;;10.63;6.40;;;;;;;13.38;60.31;101234.88;5055189;28;20049;-77
2024/03/17 16:57:21;;;;;;;11.32;6.18;;;;;;;13.38;60.81;101221.59;5055146;28;20053;-76
2024/03/17 16:59:47;;;;;;;11.10;5.88;;;;;;;13.39;60.83;101228.63;5053354;28;20044;-77
2024/03/17 17:02:17;;;;;;;10.13;6.15;;;;;;;13.32;61.33;101226.63;5052692;28;20091;-77
2024/03/17 17:04:44;;;;;;;7.63;5.70;;;;;;;13.28;61.49;101234.03;5054268;28;20079;-77
2024/03/17 17:07:12;;;;;;;10.10;6.65;;;;;;;13.24;62.04;101231.78;5053784;28;20584;-77
2024/03/17 17:09:39;;;;;;;7.47;5.55;;;;;;;13.21;62.24;101232.88;5053763;28;20124;-77
2024/03/17 17:12:08;;;;;;;9.43;6.05;;;;;;;13.14;62.32;101243.22;5054147;28;20091;-77